Time;durP1;ratioP1;P1;durP2;ratioP2;P2;SDS_P1;SDS_P2;PMS_P1;PMS_P2;Temp;Humidity;BMP_temperature;BMP_pressure;BME280_temperature;BME280_humidity;BME280_pressure;Samples;Min_cycle;Max_cycle;Signal;HPM_P1;HPM_P2
2023/05/09 00:00:09;;;;;;;57.08;33.70;;;16.60;99.90;;;;;;4984002;28;20111;-78
2023/05/09 00:02:37;;;;;;;52.28;31.23;;;14.80;99.90;;;;;;4965160;28;20161;-79
2023/05/09 00:05:04;;;;;;;47.92;31.05;;;14.80;99.90;;;;;;4983627;28;20046;-79
2023/05/09 00:07:30;;;;;;;48.15;29.77;;;14.80;99.90;;;;;;4987903;28;20042;-79
2023/05/09 00:09:56;;;;;;;51.00;29.92;;;16.20;99.90;;;;;;4982184;28;20117;-79
2023/05/09 00:12:22;;;;;;;55.72;32.50;;;16.30;99.90;;;;;;4984290;28;20117;-79
2023/05/09 00:14:50;;;;;;;48.22;30.13;;;14.70;99.90;;;;;;4986096;28;20035;-80
2023/05/09 00:17:17;;;;;;;49.45;30.42;;;14.60;99.90;;;;;;4963910;28;20100;-79
2023/05/09 00:19:44;;;;;;;47.67;28.83;;;14.60;99.90;;;;;;4984926;28;20070;-79
2023/05/09 00:22:11;;;;;;;47.22;29.75;;;14.60;99.90;;;;;;4969673;28;20050;-79
2023/05/09 00:24:37;;;;;;;47.00;30.08;;;16.10;99.90;;;;;;4969193;28;20500;-81
2023/05/09 00:27:04;;;;;;;51.05;30.58;;;14.60;99.90;;;;;;4983264;28;20453;-82
2023/05/09 00:29:29;;;;;;;50.03;29.13;;;14.70;99.90;;;;;;4968216;28;20081;-81
2023/05/09 00:31:55;;;;;;;50.60;29.45;;;14.50;99.90;;;;;;4986908;28;20093;-81
2023/05/09 00:34:21;;;;;;;53.40;30.48;;;14.40;99.90;;;;;;4988164;28;20375;-80
2023/05/09 00:36:47;;;;;;;47.40;29.88;;;14.70;99.90;;;;;;4985659;28;20081;-81
2023/05/09 00:39:12;;;;;;;43.13;28.50;;;14.50;99.90;;;;;;4987607;28;20121;-81
2023/05/09 00:41:39;;;;;;;52.67;31.45;;;14.30;99.90;;;;;;4981465;28;20073;-80
2023/05/09 00:44:05;;;;;;;48.20;29.52;;;14.30;99.90;;;;;;4969431;28;20046;-81
2023/05/09 00:46:31;;;;;;;50.92;31.67;;;15.80;99.90;;;;;;4999295;28;20039;-81
2023/05/09 00:48:57;;;;;;;58.20;33.75;;;14.30;99.90;;;;;;4968859;28;20057;-81
2023/05/09 00:51:23;;;;;;;52.20;32.55;;;15.30;99.90;;;;;;4970185;28;20397;-80
2023/05/09 00:53:48;;;;;;;52.08;31.00;;;14.20;99.90;;;;;;4980623;28;20049;-81
2023/05/09 00:56:14;;;;;;;48.38;29.70;;;14.30;99.90;;;;;;4973497;28;20612;-81
2023/05/09 00:58:40;;;;;;;47.33;30.10;;;14.20;99.90;;;;;;4974109;28;20084;-82
2023/05/09 01:01:07;;;;;;;46.60;27.67;;;14.30;99.90;;;;;;4966647;28;20042;-80
2023/05/09 01:03:33;;;;;;;55.50;32.90;;;14.30;99.90;;;;;;4981418;28;20064;-81
2023/05/09 01:06:16;;;;;;;54.95;32.95;;;14.20;99.90;;;;;;4985378;28;20034;-80
2023/05/09 01:09:02;;;;;;;55.15;32.88;;;14.20;99.90;;;;;;4965754;28;20046;-80
2023/05/09 01:11:50;;;;;;;55.80;33.85;;;14.20;99.90;;;;;;4998705;28;20492;-81
2023/05/09 01:14:53;;;;;;;50.35;30.90;;;13.90;99.90;;;;;;4971305;28;20048;-81
2023/05/09 01:17:40;;;;;;;56.42;33.13;;;14.10;99.90;;;;;;4964144;28;20078;-81
2023/05/09 01:20:19;;;;;;;52.38;32.50;;;14.10;99.90;;;;;;4987273;28;20054;-81
2023/05/09 01:22:51;;;;;;;61.10;32.90;;;14.10;99.90;;;;;;4970295;28;20043;-81
2023/05/09 01:25:31;;;;;;;52.55;32.50;;;14.10;99.90;;;;;;4980481;28;20065;-80
2023/05/09 01:28:04;;;;;;;51.40;31.02;;;14.10;99.90;;;;;;4967541;28;20042;-81
2023/05/09 01:30:32;;;;;;;53.55;33.30;;;15.70;99.90;;;;;;4984153;28;20450;-80
2023/05/09 01:33:00;;;;;;;57.17;30.15;;;14.10;99.90;;;;;;4966609;28;20047;-79
2023/05/09 01:35:28;;;;;;;53.88;31.67;;;14.10;99.90;;;;;;4967082;28;20076;-79
2023/05/09 01:37:54;;;;;;;54.53;32.50;;;14.20;99.90;;;;;;4963790;28;20050;-80
2023/05/09 01:40:22;;;;;;;51.03;30.40;;;14.20;99.90;;;;;;4986226;28;20128;-81
2023/05/09 01:42:57;;;;;;;56.65;32.78;;;15.40;99.90;;;;;;4985925;28;20048;-82
2023/05/09 01:45:24;;;;;;;53.30;32.22;;;16.00;99.90;;;;;;4966752;28;20045;-80
2023/05/09 01:47:50;;;;;;;50.95;31.30;;;14.20;99.90;;;;;;4978168;28;20104;-79
2023/05/09 01:50:17;;;;;;;51.95;31.10;;;14.20;99.90;;;;;;4964469;28;20054;-79
2023/05/09 01:52:46;;;;;;;48.72;31.95;;;14.20;99.90;;;;;;4965149;28;20038;-79
2023/05/09 01:55:13;;;;;;;50.63;32.33;;;14.30;99.90;;;;;;4971185;28;20039;-80
2023/05/09 01:57:40;;;;;;;60.20;35.45;;;14.40;99.90;;;;;;4979969;28;20125;-79
2023/05/09 02:00:09;;;;;;;64.47;36.13;;;14.30;99.90;;;;;;4985661;28;20078;-79
2023/05/09 02:02:35;;;;;;;61.88;36.42;;;14.30;99.90;;;;;;4986846;28;20053;-79
2023/05/09 02:05:02;;;;;;;65.45;37.25;;;12.60;99.90;;;;;;4970445;28;20055;-80
2023/05/09 02:07:30;;;;;;;59.53;35.95;;;15.30;99.90;;;;;;4971346;28;20042;-79
2023/05/09 02:09:57;;;;;;;66.40;36.42;;;14.20;99.90;;;;;;4969333;28;20129;-80
2023/05/09 02:12:23;;;;;;;69.47;36.67;;;14.20;99.90;;;;;;4955585;28;20042;-79
2023/05/09 02:14:50;;;;;;;64.45;36.42;;;14.10;99.90;;;;;;4981295;28;20046;-78
2023/05/09 02:17:16;;;;;;;62.33;35.95;;;14.10;99.90;;;;;;4994487;28;20105;-82
2023/05/09 02:19:42;;;;;;;57.95;34.08;;;14.50;99.90;;;;;;4986785;28;20042;-80
2023/05/09 02:22:09;;;;;;;64.90;37.30;;;13.90;99.90;;;;;;4986036;28;20495;-80
2023/05/09 02:24:35;;;;;;;57.75;35.58;;;14.10;99.90;;;;;;4969253;28;20042;-81
2023/05/09 02:27:06;;;;;;;51.00;32.10;;;14.00;99.90;;;;;;4987698;28;20092;-80
2023/05/09 02:29:39;;;;;;;54.15;33.78;;;15.90;99.90;;;;;;4980792;28;20397;-80
2023/05/09 02:32:12;;;;;;;50.63;32.83;;;14.10;99.90;;;;;;4955310;28;20049;-81
2023/05/09 02:34:39;;;;;;;57.60;36.83;;;14.10;99.90;;;;;;4964054;28;20297;-81
2023/05/09 02:37:07;;;;;;;57.22;34.42;;;14.10;99.90;;;;;;4971433;28;20050;-80
2023/05/09 02:39:34;;;;;;;61.03;35.70;;;14.10;99.90;;;;;;4987345;28;20057;-80
2023/05/09 02:42:08;;;;;;;53.03;33.92;;;14.10;99.90;;;;;;4973476;28;20054;-80
2023/05/09 02:44:34;;;;;;;51.50;31.92;;;14.10;99.90;;;;;;4968264;28;20078;-80
2023/05/09 02:47:04;;;;;;;52.88;32.30;;;14.10;99.90;;;;;;4979207;28;20096;-80
2023/05/09 02:49:30;;;;;;;47.78;31.60;;;14.10;99.90;;;;;;4992711;28;20502;-80
2023/05/09 02:51:55;;;;;;;56.67;34.67;;;14.80;99.90;;;;;;4991573;28;20073;-80
2023/05/09 02:54:24;;;;;;;49.05;32.63;;;16.10;99.90;;;;;;4970513;28;20093;-79
2023/05/09 02:56:50;;;;;;;52.20;32.00;;;15.90;99.90;;;;;;4956425;28;20043;-80
2023/05/09 02:59:17;;;;;;;56.55;34.80;;;14.10;99.90;;;;;;4988399;28;20119;-79
2023/05/09 03:01:43;;;;;;;51.53;32.97;;;15.20;99.90;;;;;;4990570;28;20038;-79
2023/05/09 03:04:12;;;;;;;54.50;34.03;;;14.50;99.90;;;;;;4989920;28;20089;-80
2023/05/09 03:06:37;;;;;;;54.42;34.30;;;14.10;99.90;;;;;;4989146;28;20042;-80
2023/05/09 03:09:03;;;;;;;48.10;31.05;;;14.10;99.90;;;;;;4966989;28;20038;-80
2023/05/09 03:11:29;;;;;;;46.85;30.77;;;15.80;99.90;;;;;;4984189;28;20038;-78
2023/05/09 03:13:55;;;;;;;45.97;31.33;;;14.10;99.90;;;;;;4983046;28;20039;-80
2023/05/09 03:16:21;;;;;;;50.92;32.25;;;14.10;99.90;;;;;;4981232;28;20038;-80
2023/05/09 03:18:47;;;;;;;49.05;30.88;;;15.60;99.90;;;;;;4982711;28;20510;-80
2023/05/09 03:21:13;;;;;;;51.08;32.25;;;15.50;99.90;;;;;;4976389;28;20493;-80
2023/05/09 03:23:39;;;;;;;50.58;33.22;;;14.10;99.90;;;;;;4989423;28;20165;-80
2023/05/09 03:26:05;;;;;;;52.13;30.10;;;14.10;99.90;;;;;;4991684;28;20133;-80
2023/05/09 03:28:30;;;;;;;50.40;32.95;;;15.90;99.90;;;;;;4968834;28;20076;-80
2023/05/09 03:30:57;;;;;;;52.50;33.03;;;14.00;99.90;;;;;;4958225;28;20446;-80
2023/05/09 03:33:23;;;;;;;54.38;32.10;;;14.10;99.90;;;;;;4991723;28;20512;-81
2023/05/09 03:35:49;;;;;;;49.38;32.53;;;15.70;99.90;;;;;;4991918;28;20050;-80
2023/05/09 03:38:14;;;;;;;55.33;34.88;;;14.70;99.90;;;;;;4990594;28;20050;-80
2023/05/09 03:40:40;;;;;;;55.03;35.03;;;14.10;99.90;;;;;;4974926;28;20057;-80
2023/05/09 03:43:05;;;;;;;60.17;35.80;;;14.10;99.90;;;;;;4991184;28;20046;-81
2023/05/09 03:45:31;;;;;;;58.58;36.25;;;14.00;99.90;;;;;;4992172;28;20394;-80
2023/05/09 03:47:57;;;;;;;56.58;35.28;;;16.10;99.90;;;;;;4991191;28;20137;-81
2023/05/09 03:50:22;;;;;;;52.58;33.45;;;15.10;99.90;;;;;;4992515;28;20375;-80
2023/05/09 03:52:49;;;;;;;58.10;35.33;;;16.20;99.90;;;;;;4990603;28;20050;-80
2023/05/09 03:55:15;;;;;;;61.75;35.38;;;15.40;99.90;;;;;;4990899;28;20166;-80
2023/05/09 03:57:42;;;;;;;57.65;35.63;;;13.70;99.90;;;;;;4990697;28;20046;-81
2023/05/09 04:00:09;;;;;;;63.35;36.10;;;14.10;99.90;;;;;;4991543;28;20096;-81
2023/05/09 04:02:35;;;;;;;59.53;36.10;;;13.90;99.90;;;;;;4991103;28;20046;-80
2023/05/09 04:05:00;;;;;;;60.08;34.30;;;13.90;99.90;;;;;;4989235;28;20057;-79
2023/05/09 04:07:27;;;;;;;56.80;35.15;;;13.90;99.90;;;;;;4989980;28;20100;-79
2023/05/09 04:09:57;;;;;;;66.82;38.72;;;14.70;99.90;;;;;;5007282;28;20046;-80
2023/05/09 04:12:22;;;;;;;70.28;39.72;;;14.60;99.90;;;;;;4988886;28;20047;-80
2023/05/09 04:14:48;;;;;;;62.55;38.88;;;13.90;99.90;;;;;;4985422;28;20124;-80
2023/05/09 04:17:13;;;;;;;66.03;40.90;;;15.70;99.90;;;;;;4972522;28;20049;-79
2023/05/09 04:19:39;;;;;;;71.28;41.13;;;14.40;99.90;;;;;;4989176;28;20064;-80
2023/05/09 04:22:05;;;;;;;77.40;43.60;;;13.90;99.90;;;;;;4974090;28;20085;-80
2023/05/09 04:24:30;;;;;;;87.07;43.28;;;14.60;99.90;;;;;;4992066;28;20065;-80
2023/05/09 04:26:56;;;;;;;101.35;46.63;;;13.90;99.90;;;;;;4973487;28;20495;-80
2023/05/09 04:29:22;;;;;;;66.78;41.78;;;15.30;99.90;;;;;;4974085;28;20466;-80
2023/05/09 04:31:47;;;;;;;64.32;41.63;;;15.50;99.90;;;;;;4988620;28;20114;-79
2023/05/09 04:34:14;;;;;;;64.95;41.80;;;14.20;99.90;;;;;;4975572;28;20126;-79
2023/05/09 04:36:43;;;;;;;56.80;38.17;;;13.90;99.90;;;;;;4994853;28;20045;-80
2023/05/09 04:39:09;;;;;;;61.00;41.70;;;13.90;99.90;;;;;;4997088;28;20204;-80
2023/05/09 04:41:36;;;;;;;63.35;41.95;;;13.90;99.90;;;;;;4997255;28;20081;-80
2023/05/09 04:44:02;;;;;;;65.85;42.15;;;14.00;99.90;;;;;;5009043;28;20042;-81
2023/05/09 04:46:28;;;;;;;65.03;41.15;;;13.90;99.90;;;;;;4993139;28;20049;-79
2023/05/09 04:48:53;;;;;;;74.15;45.13;;;13.10;99.90;;;;;;4997814;28;20514;-80
2023/05/09 04:51:25;;;;;;;82.45;45.28;;;14.00;99.90;;;;;;4984361;28;20081;-80
2023/05/09 04:53:54;;;;;;;72.75;44.22;;;14.00;99.90;;;;;;4990520;28;20085;-79
2023/05/09 04:56:20;;;;;;;66.38;41.42;;;14.00;99.90;;;;;;4976113;28;20047;-81
2023/05/09 04:58:46;;;;;;;85.30;48.03;;;14.10;99.90;;;;;;4975019;28;20053;-81
2023/05/09 05:01:12;;;;;;;87.13;48.40;;;14.20;99.90;;;;;;4992796;28;20490;-82
2023/05/09 05:03:38;;;;;;;102.75;52.50;;;15.00;99.90;;;;;;4991070;28;20085;-82
2023/05/09 05:06:06;;;;;;;87.85;50.15;;;14.40;99.90;;;;;;4990268;28;20042;-82
2023/05/09 05:08:32;;;;;;;88.05;50.30;;;15.20;99.90;;;;;;4991601;28;20049;-81
2023/05/09 05:10:57;;;;;;;94.65;52.65;;;14.30;99.90;;;;;;4995635;28;20050;-80
2023/05/09 05:13:23;;;;;;;106.25;55.17;;;14.20;99.90;;;;;;4991900;28;20400;-81
2023/05/09 05:15:49;;;;;;;99.32;54.83;;;14.20;99.90;;;;;;4993369;28;20078;-81
2023/05/09 05:18:14;;;;;;;102.80;55.45;;;15.80;99.90;;;;;;4991528;28;20057;-81
2023/05/09 05:20:41;;;;;;;103.50;53.55;;;14.30;99.90;;;;;;4990064;28;20130;-81
2023/05/09 05:23:07;;;;;;;109.07;53.92;;;14.30;99.90;;;;;;4991074;28;20034;-82
2023/05/09 05:25:33;;;;;;;110.55;56.47;;;16.50;99.90;;;;;;4974077;28;20057;-80
2023/05/09 05:27:58;;;;;;;107.72;56.78;;;14.70;99.90;;;;;;4989949;28;20050;-80
2023/05/09 05:30:24;;;;;;;94.53;53.15;;;14.40;99.90;;;;;;4988998;28;20042;-79
2023/05/09 05:32:50;;;;;;;95.72;55.03;;;15.40;99.90;;;;;;4991122;28;20042;-78
2023/05/09 05:35:15;;;;;;;84.55;51.63;;;15.50;99.90;;;;;;4989267;28;20466;-79
2023/05/09 05:37:42;;;;;;;93.85;54.13;;;14.40;99.90;;;;;;4989971;28;20050;-80
2023/05/09 05:40:08;;;;;;;105.10;55.83;;;14.40;99.90;;;;;;4990211;28;20140;-79
2023/05/09 05:42:35;;;;;;;116.28;59.38;;;14.40;99.90;;;;;;4991458;28;20046;-81
2023/05/09 05:45:03;;;;;;;107.75;56.22;;;14.40;99.90;;;;;;4990644;28;20038;-81
2023/05/09 05:47:36;;;;;;;95.00;55.20;;;15.90;99.90;;;;;;4967643;28;20098;-80
2023/05/09 05:50:07;;;;;;;100.97;56.83;;;14.50;99.90;;;;;;4992110;28;20053;-81
2023/05/09 05:52:33;;;;;;;99.55;61.17;;;14.50;99.90;;;;;;4990269;28;20042;-80
2023/05/09 05:54:59;;;;;;;86.82;54.75;;;14.50;99.90;;;;;;4990681;28;20046;-80
2023/05/09 05:57:26;;;;;;;91.05;54.00;;;14.60;99.90;;;;;;4990714;28;20148;-82
2023/05/09 05:59:51;;;;;;;104.60;58.17;;;14.60;99.90;;;;;;4972132;28;20053;-81
2023/05/09 06:02:20;;;;;;;98.53;57.75;;;13.90;99.90;;;;;;4990115;28;20050;-80
2023/05/09 06:04:46;;;;;;;101.30;59.53;;;14.70;99.90;;;;;;4971733;28;20058;-82
2023/05/09 06:07:12;;;;;;;99.03;58.67;;;14.70;99.90;;;;;;4988098;28;20133;-82
2023/05/09 06:09:40;;;;;;;100.07;57.65;;;14.70;99.90;;;;;;4972299;28;20382;-80
2023/05/09 06:12:06;;;;;;;94.43;56.20;;;14.80;99.90;;;;;;4993352;28;20077;-81
2023/05/09 06:14:32;;;;;;;109.28;60.95;;;14.80;99.90;;;;;;4994453;28;20074;-81
2023/05/09 06:16:58;;;;;;;102.80;59.97;;;14.80;99.90;;;;;;4990763;28;20042;-82
2023/05/09 06:19:24;;;;;;;134.73;66.75;;;14.90;99.90;;;;;;4992178;28;20054;-80
2023/05/09 06:21:50;;;;;;;109.93;62.08;;;15.20;99.90;;;;;;4994855;28;20177;-80
2023/05/09 06:24:15;;;;;;;108.22;62.95;;;14.90;99.90;;;;;;4992920;28;20082;-81
2023/05/09 06:26:41;;;;;;;104.57;63.08;;;15.00;99.90;;;;;;4992308;28;20077;-81
2023/05/09 06:29:07;;;;;;;99.00;62.35;;;16.90;99.90;;;;;;4985236;28;20487;-81
2023/05/09 06:31:37;;;;;;;122.22;63.95;;;15.00;99.90;;;;;;4996695;28;20042;-81
2023/05/09 06:34:04;;;;;;;106.50;60.80;;;16.10;99.90;;;;;;4993362;28;20046;-81
2023/05/09 06:36:31;;;;;;;98.72;60.08;;;15.10;99.90;;;;;;4977662;28;20046;-80
2023/05/09 06:38:56;;;;;;;106.07;62.78;;;15.20;99.90;;;;;;4992353;28;20144;-81
2023/05/09 06:41:22;;;;;;;99.63;59.63;;;16.70;99.90;;;;;;4992925;28;20486;-81
2023/05/09 06:43:48;;;;;;;102.30;61.15;;;15.20;99.90;;;;;;4977281;28;20049;-81
2023/05/09 06:46:14;;;;;;;102.55;61.70;;;15.30;99.90;;;;;;4992570;28;20478;-79
2023/05/09 06:48:39;;;;;;;103.40;62.78;;;15.30;99.90;;;;;;4986466;28;20056;-79
2023/05/09 06:51:05;;;;;;;101.38;59.25;;;15.40;99.90;;;;;;4992612;28;20097;-81
2023/05/09 06:53:31;;;;;;;93.07;59.25;;;17.10;99.90;;;;;;4993510;28;20046;-81
2023/05/09 06:55:56;;;;;;;97.30;66.20;;;15.80;99.90;;;;;;4992287;28;20042;-80
2023/05/09 06:58:22;;;;;;;94.88;60.45;;;16.20;99.90;;;;;;4992218;28;20058;-81
2023/05/09 07:00:48;;;;;;;96.47;60.85;;;15.40;99.90;;;;;;4992207;28;20076;-81
2023/05/09 07:03:14;;;;;;;94.45;58.53;;;17.10;99.90;;;;;;4990607;28;20044;-81
2023/05/09 07:05:40;;;;;;;100.55;62.88;;;16.00;99.90;;;;;;4996715;28;20050;-83
2023/05/09 07:08:06;;;;;;;95.80;57.70;;;16.60;99.90;;;;;;4988681;28;20142;-82
2023/05/09 07:10:31;;;;;;;91.47;59.35;;;16.60;99.90;;;;;;4993334;28;20073;-81
2023/05/09 07:12:57;;;;;;;91.68;59.55;;;15.50;99.90;;;;;;4992718;28;20112;-78
2023/05/09 07:15:25;;;;;;;89.47;59.85;;;15.50;99.90;;;;;;4363704;28;10001798;-79
2023/05/09 07:17:51;;;;;;;89.60;57.88;;;17.00;99.90;;;;;;4985201;28;20739;-80
2023/05/09 07:20:17;;;;;;;98.72;60.03;;;16.40;99.90;;;;;;4983613;28;20070;-81
2023/05/09 07:22:42;;;;;;;103.78;60.38;;;15.60;99.90;;;;;;4970667;28;20046;-80
2023/05/09 07:25:08;;;;;;;96.85;58.75;;;15.60;99.90;;;;;;4983862;28;20043;-82
2023/05/09 07:27:35;;;;;;;100.50;60.00;;;15.60;99.90;;;;;;4986596;28;20038;-82
2023/05/09 07:30:05;;;;;;;97.35;59.20;;;15.70;99.90;;;;;;4991365;28;20046;-82
2023/05/09 07:32:31;;;;;;;96.88;58.58;;;16.60;99.90;;;;;;4992349;28;20610;-82
2023/05/09 07:34:57;;;;;;;93.00;55.95;;;15.70;99.90;;;;;;4990312;28;20043;-82
2023/05/09 07:37:25;;;;;;;84.32;52.00;;;15.80;99.90;;;;;;4978743;28;20042;-83
2023/05/09 07:40:19;;;;;;;78.07;51.78;;;15.80;99.90;;;;;;4976014;28;20093;-83
2023/05/09 07:42:53;;;;;;;83.90;53.50;;;15.80;99.90;;;;;;4996049;28;20108;-83
2023/05/09 07:45:20;;;;;;;74.32;48.42;;;15.80;99.90;;;;;;4988646;28;20034;-81
2023/05/09 07:47:46;;;;;;;74.72;48.20;;;15.80;99.90;;;;;;4968486;28;20085;-82
2023/05/09 07:50:12;;;;;;;75.82;50.13;;;15.80;99.90;;;;;;4987093;28;20039;-80
2023/05/09 07:52:37;;;;;;;72.30;46.33;;;15.80;99.90;;;;;;4988760;28;20046;-82
2023/05/09 07:55:03;;;;;;;66.43;44.83;;;16.70;99.90;;;;;;4991633;28;20038;-83
2023/05/09 07:57:29;;;;;;;68.45;43.83;;;15.80;99.90;;;;;;4972717;28;20421;-82
2023/05/09 07:59:54;;;;;;;63.15;41.90;;;17.00;99.90;;;;;;4991413;28;20113;-78
2023/05/09 08:02:20;;;;;;;64.20;41.00;;;15.70;99.90;;;;;;4982579;28;20093;-79
2023/05/09 08:04:47;;;;;;;66.07;41.92;;;15.80;99.90;;;;;;4969919;28;20073;-80
2023/05/09 08:07:13;;;;;;;64.90;41.70;;;17.40;99.90;;;;;;4972723;28;20118;-81
2023/05/09 08:09:39;;;;;;;61.65;40.92;;;17.60;99.90;;;;;;4978935;28;20120;-81
2023/05/09 08:12:05;;;;;;;61.25;40.38;;;16.20;99.90;;;;;;4982305;28;20047;-82
2023/05/09 08:14:30;;;;;;;62.40;40.33;;;15.80;99.90;;;;;;4985357;28;20082;-82
2023/05/09 08:16:56;;;;;;;62.15;41.97;;;16.70;99.90;;;;;;4981516;28;20054;-81
2023/05/09 08:19:24;;;;;;;65.70;41.42;;;15.80;99.90;;;;;;4973529;28;20050;-82
2023/05/09 08:21:51;;;;;;;64.57;41.97;;;17.10;99.90;;;;;;4983328;28;20050;-80
2023/05/09 08:24:16;;;;;;;61.70;41.47;;;17.80;99.90;;;;;;4967767;28;20090;-81
2023/05/09 08:26:43;;;;;;;65.88;42.05;;;16.50;99.90;;;;;;4982143;28;20077;-81
2023/05/09 08:29:08;;;;;;;59.25;40.75;;;15.80;99.90;;;;;;4971755;28;20508;-82
2023/05/09 08:31:34;;;;;;;65.68;41.38;;;16.40;99.90;;;;;;4970312;28;20082;-82
2023/05/09 08:34:00;;;;;;;56.72;40.25;;;15.90;99.90;;;;;;4969505;28;20520;-82
2023/05/09 08:36:25;;;;;;;66.90;41.90;;;15.90;99.90;;;;;;4965862;28;20042;-82
2023/05/09 08:38:51;;;;;;;62.60;41.20;;;15.90;99.90;;;;;;4990981;28;20045;-81
2023/05/09 08:41:17;;;;;;;65.93;42.38;;;16.00;99.90;;;;;;4984548;28;20049;-81
2023/05/09 08:43:43;;;;;;;57.95;40.65;;;16.00;99.90;;;;;;4962912;28;20039;-80
2023/05/09 08:46:10;;;;;;;59.13;40.22;;;17.00;99.90;;;;;;4962154;28;20042;-81
2023/05/09 08:48:37;;;;;;;60.72;41.17;;;16.00;99.90;;;;;;4964659;28;20104;-80
2023/05/09 08:51:06;;;;;;;62.38;43.10;;;16.10;99.90;;;;;;4969831;28;20454;-81
2023/05/09 08:53:32;;;;;;;59.28;40.95;;;16.00;99.90;;;;;;4989518;28;20037;-79
2023/05/09 08:56:00;;;;;;;65.38;42.50;;;16.00;99.90;;;;;;4967802;28;20545;-78
2023/05/09 08:58:28;;;;;;;58.42;41.45;;;16.00;99.90;;;;;;4981941;28;20038;-78
2023/05/09 09:00:57;;;;;;;65.13;42.58;;;16.00;99.90;;;;;;4966265;28;20836;-79
2023/05/09 09:03:25;;;;;;;64.60;41.97;;;16.70;99.90;;;;;;4964662;28;20035;-79
2023/05/09 09:05:52;;;;;;;61.55;41.03;;;16.10;99.90;;;;;;4967729;28;20038;-79
2023/05/09 09:08:18;;;;;;;65.13;41.67;;;17.00;99.90;;;;;;4988573;28;20129;-79
2023/05/09 09:10:46;;;;;;;61.40;42.83;;;16.10;99.90;;;;;;4968805;28;20121;-79
2023/05/09 09:13:12;;;;;;;62.65;40.47;;;16.20;99.90;;;;;;4980630;28;20085;-79
2023/05/09 09:15:40;;;;;;;66.75;43.75;;;17.20;99.90;;;;;;4986254;28;20034;-79
2023/05/09 09:18:08;;;;;;;61.35;41.70;;;16.30;99.90;;;;;;4978981;28;20042;-79
2023/05/09 09:20:43;;;;;;;62.35;40.67;;;16.50;99.90;;;;;;4986243;28;20498;-78
2023/05/09 09:23:13;;;;;;;61.80;40.78;;;16.40;99.90;;;;;;4969033;28;20142;-76
2023/05/09 09:25:39;;;;;;;60.83;41.95;;;16.50;99.90;;;;;;4985707;28;20060;-79
2023/05/09 09:28:04;;;;;;;56.17;39.88;;;16.50;99.90;;;;;;4982586;28;20121;-79
2023/05/09 09:30:30;;;;;;;53.58;38.60;;;16.50;99.90;;;;;;4987532;28;20101;-79
2023/05/09 09:32:58;;;;;;;57.90;37.42;;;16.60;99.90;;;;;;4986082;28;20049;-79
2023/05/09 09:35:23;;;;;;;54.00;37.15;;;18.30;99.90;;;;;;4985144;28;20034;-79
2023/05/09 09:37:56;;;;;;;46.30;33.67;;;16.60;99.90;;;;;;4985613;28;20391;-79
2023/05/09 09:40:23;;;;;;;46.90;33.05;;;16.80;99.90;;;;;;4984363;28;20078;-79
2023/05/09 09:42:51;;;;;;;50.67;35.42;;;17.40;99.90;;;;;;4984366;28;20045;-77
2023/05/09 09:45:18;;;;;;;47.20;34.10;;;16.70;99.90;;;;;;4967434;28;20049;-78
2023/05/09 09:47:46;;;;;;;46.05;33.80;;;16.70;99.90;;;;;;4969163;28;20053;-78
2023/05/09 09:50:13;;;;;;;46.75;33.08;;;16.80;99.90;;;;;;4986351;28;20046;-78
2023/05/09 09:52:47;;;;;;;46.25;32.95;;;16.70;99.90;;;;;;4983695;28;20326;-78
2023/05/09 09:55:13;;;;;;;51.08;35.22;;;16.80;99.90;;;;;;4982961;28;20049;-81
2023/05/09 09:57:40;;;;;;;50.25;34.92;;;18.20;99.90;;;;;;5003073;28;20038;-82
2023/05/09 10:00:10;;;;;;;53.72;36.25;;;17.40;99.90;;;;;;4991216;28;20618;-82
2023/05/09 10:02:47;;;;;;;47.33;33.58;;;17.10;99.90;;;;;;4974167;28;20114;-81
2023/05/09 10:05:23;;;;;;;47.10;32.75;;;17.10;99.90;;;;;;4955571;28;20809;-81
2023/05/09 10:07:59;;;;;;;38.56;30.92;;;17.10;99.90;;;;;;4642351;28;10001042;-80
2023/05/09 10:10:31;;;;;;;45.30;33.17;;;17.20;99.90;;;;;;4975895;28;20042;-81
2023/05/09 10:13:09;;;;;;;44.65;31.45;;;17.20;99.90;;;;;;4970492;28;20042;-81
2023/05/09 10:15:36;;;;;;;39.00;29.08;;;17.20;99.90;;;;;;4981950;28;20050;-82
2023/05/09 10:18:06;;;;;;;37.90;28.90;;;17.30;99.90;;;;;;4980334;28;20528;-83
2023/05/09 10:20:33;;;;;;;39.15;29.50;;;17.30;99.90;;;;;;4964079;28;20050;-81
2023/05/09 10:23:03;;;;;;;38.58;27.52;;;17.30;99.90;;;;;;4968132;28;20050;-82
2023/05/09 10:25:40;;;;;;;36.78;24.55;;;17.30;99.90;;;;;;4986386;28;20104;-82
2023/05/09 10:28:16;;;;;;;35.53;25.20;;;17.40;99.90;;;;;;4980154;28;20042;-82
2023/05/09 10:31:14;;;;;;;30.98;23.67;;;17.40;99.90;;;;;;4981845;28;20056;-82
2023/05/09 10:33:48;;;;;;;31.35;23.77;;;17.40;99.90;;;;;;4968102;28;20058;-81
2023/05/09 10:36:24;;;;;;;29.00;22.95;;;17.40;99.90;;;;;;4986654;28;20046;-81
2023/05/09 10:38:54;;;;;;;29.60;22.95;;;17.60;99.90;;;;;;4986277;28;20108;-81
2023/05/09 10:41:24;;;;;;;34.53;23.73;;;17.40;99.90;;;;;;4962351;28;20038;-81
2023/05/09 10:43:50;;;;;;;31.02;23.02;;;17.50;99.90;;;;;;4970720;28;20050;-81
2023/05/09 10:46:16;;;;;;;27.83;21.27;;;17.50;99.90;;;;;;4953113;28;20109;-81
2023/05/09 10:51:11;;;;;;;25.83;19.92;;;17.50;99.90;;;;;;4999842;28;20394;-82
2023/05/09 10:53:59;;;;;;;25.00;19.15;;;17.50;99.90;;;;;;5009932;28;20049;-80
2023/05/09 10:56:32;;;;;;;26.20;17.88;;;17.60;99.90;;;;;;5007736;28;20049;-80
2023/05/09 10:59:01;;;;;;;24.90;17.13;;;17.60;99.90;;;;;;4987987;28;20042;-81
2023/05/09 11:01:35;;;;;;;22.90;17.23;;;17.60;99.90;;;;;;4971500;28;20035;-79
2023/05/09 11:04:09;;;;;;;19.90;17.23;;;17.60;99.90;;;;;;4998168;28;20066;-79
2023/05/09 11:06:40;;;;;;;18.40;16.17;;;17.70;99.90;;;;;;4994578;28;20049;-79
2023/05/09 11:09:26;;;;;;;21.15;16.67;;;17.60;99.90;;;;;;4998760;28;20033;-80
2023/05/09 11:11:57;;;;;;;20.83;15.90;;;17.60;99.90;;;;;;5011717;28;20050;-79
2023/05/09 11:14:53;;;;;;;22.33;14.43;;;17.60;99.90;;;;;;5012542;28;20048;-81
2023/05/09 11:17:22;;;;;;;18.27;14.13;;;17.60;99.90;;;;;;4973123;28;20050;-80
2023/05/09 11:19:50;;;;;;;20.67;15.55;;;17.60;99.90;;;;;;4983628;28;20085;-80
2023/05/09 11:22:26;;;;;;;22.60;16.42;;;17.60;99.90;;;;;;4980665;28;20042;-79
2023/05/09 11:24:58;;;;;;;18.13;16.13;;;18.50;99.90;;;;;;4994439;28;20759;-80
2023/05/09 11:27:27;;;;;;;16.48;14.63;;;17.60;99.90;;;;;;5007414;28;20037;-81
2023/05/09 11:29:58;;;;;;;17.25;13.73;;;17.50;99.90;;;;;;4993198;28;20121;-80
2023/05/09 11:32:29;;;;;;;15.98;13.60;;;17.50;99.90;;;;;;5005072;28;20125;-81
2023/05/09 11:35:14;;;;;;;15.70;14.00;;;17.50;99.90;;;;;;4995052;28;20122;-79
2023/05/09 11:38:00;;;;;;;18.23;14.13;;;17.60;99.90;;;;;;5008629;28;20038;-81
2023/05/09 11:40:38;;;;;;;19.83;14.82;;;17.60;99.90;;;;;;4995586;28;20042;-81
2023/05/09 11:43:12;;;;;;;16.55;14.20;;;17.50;99.90;;;;;;4994456;28;20045;-80
2023/05/09 11:45:42;;;;;;;19.85;15.75;;;17.60;99.90;;;;;;5009679;28;20054;-82
2023/05/09 11:48:08;;;;;;;16.75;14.07;;;18.30;99.90;;;;;;4979931;28;20053;-81
2023/05/09 11:50:34;;;;;;;16.15;14.38;;;17.60;99.90;;;;;;5005758;28;20053;-80
2023/05/09 11:53:00;;;;;;;16.90;13.75;;;17.60;99.90;;;;;;4997380;28;20374;-80
2023/05/09 11:55:29;;;;;;;17.00;14.52;;;17.70;99.90;;;;;;5010493;28;20117;-81
2023/05/09 11:57:54;;;;;;;15.77;13.95;;;17.70;99.90;;;;;;5003555;28;20053;-79
2023/05/09 12:00:22;;;;;;;20.50;15.10;;;17.70;99.90;;;;;;5008981;28;20049;-84
2023/05/09 12:02:49;;;;;;;16.17;14.23;;;17.70;99.90;;;;;;5009407;28;20145;-83
2023/05/09 12:05:17;;;;;;;15.80;14.10;;;17.70;99.90;;;;;;5011091;28;20050;-83
2023/05/09 12:07:43;;;;;;;16.00;14.32;;;18.00;99.90;;;;;;4986520;28;20050;-82
2023/05/09 12:10:11;;;;;;;16.58;13.70;;;17.80;99.90;;;;;;5013155;28;20041;-81
2023/05/09 12:12:48;;;;;;;15.88;14.13;;;17.80;99.90;;;;;;4989325;28;20034;-82
2023/05/09 12:15:15;;;;;;;19.23;14.98;;;17.80;99.90;;;;;;5011923;28;20881;-81
2023/05/09 12:17:42;;;;;;;14.75;13.23;;;18.00;99.90;;;;;;4990833;28;20103;-81
2023/05/09 12:20:08;;;;;;;16.45;13.57;;;17.80;99.90;;;;;;4992560;28;20046;-81
2023/05/09 12:22:36;;;;;;;14.90;13.40;;;17.80;99.90;;;;;;5003430;28;20065;-83
2023/05/09 12:25:09;;;;;;;15.65;13.80;;;17.90;99.90;;;;;;5011618;28;20765;-81
2023/05/09 12:27:36;;;;;;;18.20;14.30;;;17.90;99.90;;;;;;4998321;28;20049;-81
2023/05/09 12:30:08;;;;;;;16.30;13.82;;;17.90;99.90;;;;;;5007933;28;20489;-81
2023/05/09 12:32:35;;;;;;;16.45;14.75;;;18.00;99.90;;;;;;5005032;28;20030;-80